Time;durP1;ratioP1;P1;durP2;ratioP2;P2;SDS_P1;SDS_P2;PMS_P1;PMS_P2;Temp;Humidity;BMP_temperature;BMP_pressure;BME280_temperature;BME280_humidity;BME280_pressure;Samples;Min_cycle;Max_cycle;Signal;HPM_P1;HPM_P2
2023/12/26 00:01:54;;;;;;;0.70;0.70;;;7.40;99.90;;;;;;5045141;28;21127;-79
2023/12/26 00:04:23;;;;;;;0.73;0.70;;;7.40;99.90;;;;;;5048525;27;20658;-77
2023/12/26 00:06:49;;;;;;;0.60;0.60;;;7.40;99.90;;;;;;5062152;27;20632;-77
2023/12/26 00:09:16;;;;;;;1.20;0.80;;;7.40;99.90;;;;;;5056910;28;20721;-77
2023/12/26 00:11:46;;;;;;;1.70;0.50;;;7.30;99.90;;;;;;5044768;28;20670;-76
2023/12/26 00:14:15;;;;;;;4.53;1.40;;;7.30;99.90;;;;;;5041948;28;20653;-76
2023/12/26 00:16:42;;;;;;;0.70;0.70;;;7.20;99.90;;;;;;5042823;27;20627;-77
2023/12/26 00:19:09;;;;;;;1.20;0.93;;;7.30;99.90;;;;;;5055303;27;20664;-77
2023/12/26 00:21:36;;;;;;;2.00;1.07;;;7.20;99.90;;;;;;5051371;28;20619;-77
2023/12/26 00:24:04;;;;;;;3.70;1.20;;;7.20;99.90;;;;;;5047540;28;20677;-76
2023/12/26 00:26:31;;;;;;;1.27;1.17;;;7.20;99.90;;;;;;5042939;28;20632;-78
2023/12/26 00:28:59;;;;;;;1.53;1.20;;;7.20;99.90;;;;;;5045545;27;20647;-76
2023/12/26 00:31:26;;;;;;;0.60;0.60;;;7.10;99.90;;;;;;5049460;27;20761;-77
2023/12/26 00:33:53;;;;;;;1.17;0.60;;;7.20;99.90;;;;;;5046854;28;20688;-78
2023/12/26 00:36:22;;;;;;;0.50;0.50;;;7.10;99.90;;;;;;5042473;28;20671;-76
2023/12/26 00:38:49;;;;;;;2.30;1.37;;;7.00;99.90;;;;;;5043991;28;20762;-76
2023/12/26 00:41:16;;;;;;;1.60;1.30;;;7.00;99.90;;;;;;5044758;27;20622;-76
2023/12/26 00:43:43;;;;;;;4.47;2.67;;;7.00;99.90;;;;;;5044407;27;20695;-77
2023/12/26 00:46:11;;;;;;;6.93;2.90;;;7.00;99.90;;;;;;5048413;27;20635;-77
2023/12/26 00:48:38;;;;;;;1.17;1.07;;;7.00;99.90;;;;;;5037014;27;20696;-77
2023/12/26 00:51:05;;;;;;;1.73;1.20;;;7.00;99.90;;;;;;5040015;27;20770;-77
2023/12/26 00:53:32;;;;;;;2.03;0.70;;;6.90;99.90;;;;;;5037967;27;20625;-77
2023/12/26 00:55:59;;;;;;;1.00;1.00;;;6.90;99.90;;;;;;5038360;27;20708;-76
2023/12/26 00:58:26;;;;;;;1.37;0.97;;;6.90;99.90;;;;;;5044352;28;20974;-77
2023/12/26 01:00:53;;;;;;;0.93;0.87;;;6.90;99.90;;;;;;5050818;27;21054;-77
2023/12/26 01:03:22;;;;;;;0.97;0.60;;;6.80;99.90;;;;;;5057548;27;20614;-77
2023/12/26 01:05:49;;;;;;;1.50;1.10;;;6.80;99.90;;;;;;5054707;27;20749;-77
2023/12/26 01:08:16;;;;;;;0.87;0.80;;;6.80;99.90;;;;;;5050322;27;20733;-77
2023/12/26 01:10:43;;;;;;;0.70;0.70;;;6.90;99.90;;;;;;5047448;27;20670;-77
2023/12/26 01:13:10;;;;;;;1.17;1.00;;;7.00;99.90;;;;;;5046589;27;21383;-77
2023/12/26 01:15:37;;;;;;;3.10;1.30;;;7.00;99.90;;;;;;5045955;28;20667;-77
2023/12/26 01:18:05;;;;;;;1.00;0.87;;;6.90;99.90;;;;;;5043899;28;20714;-77
2023/12/26 01:20:33;;;;;;;1.00;0.90;;;6.80;99.90;;;;;;5044649;27;21015;-77
2023/12/26 01:23:00;;;;;;;1.13;1.03;;;6.80;99.90;;;;;;5050694;28;20634;-77
2023/12/26 01:25:27;;;;;;;1.40;1.13;;;6.70;99.90;;;;;;5046128;28;21030;-77
2023/12/26 01:27:54;;;;;;;1.02;0.80;;;6.60;99.90;;;;;;5049181;28;20627;-77
2023/12/26 01:30:21;;;;;;;1.23;1.03;;;6.80;99.90;;;;;;5048844;27;20337;-78
2023/12/26 01:32:48;;;;;;;1.80;0.70;;;6.90;99.90;;;;;;5048015;27;20721;-77
2023/12/26 01:35:15;;;;;;;0.85;0.75;;;6.90;99.90;;;;;;5051116;28;21005;-77
2023/12/26 01:37:43;;;;;;;1.65;1.35;;;6.90;99.90;;;;;;5067482;27;20204;-78
2023/12/26 01:40:11;;;;;;;0.93;0.93;;;6.90;99.90;;;;;;5047474;27;20303;-76
2023/12/26 01:42:38;;;;;;;0.95;0.95;;;6.90;99.90;;;;;;5040080;28;20942;-76
2023/12/26 01:45:06;;;;;;;5.90;1.40;;;6.80;99.90;;;;;;5037047;28;21042;-76
2023/12/26 01:47:33;;;;;;;1.45;0.90;;;6.80;99.90;;;;;;5041040;27;20646;-76
2023/12/26 01:50:01;;;;;;;1.23;0.82;;;6.80;99.90;;;;;;5044933;27;20200;-77
2023/12/26 01:52:28;;;;;;;2.30;0.90;;;6.90;99.90;;;;;;5033190;27;20238;-76
2023/12/26 01:54:57;;;;;;;1.27;0.90;;;6.80;99.90;;;;;;5044123;28;20627;-77
2023/12/26 01:57:24;;;;;;;1.23;1.00;;;6.90;99.90;;;;;;5033386;27;20663;-76
2023/12/26 01:59:53;;;;;;;0.80;0.80;;;7.00;99.90;;;;;;5051487;28;21633;-77
2023/12/26 02:02:20;;;;;;;1.23;1.13;;;7.10;99.90;;;;;;5058802;27;20661;-76
2023/12/26 02:04:47;;;;;;;3.60;1.40;;;7.00;99.90;;;;;;5058063;28;20280;-78
2023/12/26 02:07:14;;;;;;;1.00;0.60;;;7.00;99.90;;;;;;5049587;28;20619;-77
2023/12/26 02:09:42;;;;;;;0.93;0.93;;;7.00;99.90;;;;;;5054861;28;20590;-77
2023/12/26 02:12:10;;;;;;;0.90;0.90;;;7.00;99.90;;;;;;5045533;28;20673;-77
2023/12/26 02:14:38;;;;;;;1.27;0.70;;;7.00;99.90;;;;;;5049543;27;20618;-77
2023/12/26 02:17:10;;;;;;;2.03;1.00;;;7.00;99.90;;;;;;5045999;27;20664;-77
2023/12/26 02:19:42;;;;;;;1.73;1.63;;;7.00;99.90;;;;;;5053914;27;20622;-77
2023/12/26 02:22:09;;;;;;;1.03;0.93;;;7.10;99.90;;;;;;5052139;27;20653;-77
2023/12/26 02:24:42;;;;;;;1.13;0.80;;;7.20;99.90;;;;;;5040431;28;20655;-77
2023/12/26 02:27:13;;;;;;;0.93;0.90;;;7.10;99.90;;;;;;5047442;28;20621;-77
2023/12/26 02:29:41;;;;;;;0.80;0.80;;;7.10;99.90;;;;;;5043974;27;20683;-77
2023/12/26 02:32:10;;;;;;;1.50;1.00;;;7.10;99.90;;;;;;5043276;27;20670;-77
2023/12/26 02:34:38;;;;;;;1.77;1.50;;;7.10;99.90;;;;;;5038821;28;20638;-77
2023/12/26 02:37:05;;;;;;;0.50;0.43;;;7.20;99.90;;;;;;5047707;27;20623;-77
2023/12/26 02:39:32;;;;;;;1.00;0.90;;;7.20;99.90;;;;;;5046791;27;21003;-77
2023/12/26 02:42:01;;;;;;;1.13;0.90;;;7.20;99.90;;;;;;5043713;28;20631;-77
2023/12/26 02:44:28;;;;;;;0.80;0.80;;;7.20;99.90;;;;;;5042467;28;20614;-77
2023/12/26 02:46:59;;;;;;;8.90;1.77;;;7.30;99.90;;;;;;5037535;28;20628;-77
2023/12/26 02:49:27;;;;;;;1.37;1.27;;;7.30;99.90;;;;;;5043988;27;20626;-77
2023/12/26 02:51:55;;;;;;;1.17;1.07;;;7.30;99.90;;;;;;5034385;27;20659;-77
2023/12/26 02:54:23;;;;;;;1.20;1.10;;;7.30;99.90;;;;;;5036772;27;21470;-76
2023/12/26 02:56:49;;;;;;;0.80;0.70;;;7.40;99.90;;;;;;5034683;27;20623;-77
2023/12/26 02:59:18;;;;;;;1.23;1.13;;;7.40;99.90;;;;;;5041438;27;21183;-76
2023/12/26 03:01:45;;;;;;;0.93;0.83;;;7.40;99.90;;;;;;5057621;27;20612;-77
2023/12/26 03:04:15;;;;;;;1.53;0.90;;;7.40;99.90;;;;;;5054774;28;20618;-76
2023/12/26 03:06:42;;;;;;;0.80;0.67;;;7.40;99.90;;;;;;5058453;27;21204;-77
2023/12/26 03:09:10;;;;;;;3.90;0.77;;;7.40;99.90;;;;;;5062288;27;20652;-77
2023/12/26 03:11:37;;;;;;;0.60;0.60;;;7.40;99.90;;;;;;5057243;28;20698;-77
2023/12/26 03:14:05;;;;;;;0.50;0.50;;;7.40;99.90;;;;;;5053770;27;20635;-77
2023/12/26 03:16:34;;;;;;;0.70;0.67;;;7.50;99.90;;;;;;5053537;27;20679;-77
2023/12/26 03:19:02;;;;;;;0.90;0.83;;;7.40;99.90;;;;;;5051779;28;20618;-76
2023/12/26 03:21:30;;;;;;;1.60;1.50;;;7.30;99.90;;;;;;5046837;27;20631;-77
2023/12/26 03:23:58;;;;;;;2.30;1.10;;;7.30;99.90;;;;;;5051240;28;20650;-77
2023/12/26 03:26:26;;;;;;;4.83;1.20;;;7.30;99.90;;;;;;5043195;28;20627;-77
2023/12/26 03:28:54;;;;;;;1.63;0.83;;;7.30;99.90;;;;;;5042797;28;20635;-77
2023/12/26 03:31:21;;;;;;;0.63;0.53;;;7.30;99.90;;;;;;5050812;27;20756;-76
2023/12/26 03:33:51;;;;;;;1.60;1.50;;;7.30;99.80;;;;;;5041753;28;20637;-77
2023/12/26 03:36:18;;;;;;;1.85;0.90;;;7.30;99.70;;;;;;5051549;27;20655;-76
2023/12/26 03:38:46;;;;;;;0.60;0.60;;;7.30;99.70;;;;;;5060046;27;20643;-77
2023/12/26 03:41:13;;;;;;;1.00;0.70;;;7.20;99.70;;;;;;5090362;27;20665;-77
2023/12/26 03:43:41;;;;;;;0.70;0.70;;;7.30;99.50;;;;;;5074855;27;21201;-77
2023/12/26 03:46:08;;;;;;;1.90;1.50;;;7.20;99.60;;;;;;5088423;27;20620;-77
2023/12/26 03:48:36;;;;;;;4.60;1.20;;;7.30;99.70;;;;;;5081990;27;20643;-77
2023/12/26 03:51:04;;;;;;;1.00;0.67;;;7.30;99.40;;;;;;5082434;27;20688;-77
2023/12/26 03:53:31;;;;;;;0.60;0.60;;;7.30;99.40;;;;;;5080528;27;20687;-77
2023/12/26 03:55:58;;;;;;;1.10;1.00;;;7.30;99.50;;;;;;5041662;27;20624;-77
2023/12/26 03:58:25;;;;;;;0.83;0.60;;;7.30;99.50;;;;;;5044169;28;20654;-77
2023/12/26 04:00:52;;;;;;;0.60;0.60;;;7.30;99.40;;;;;;5041850;28;20619;-76
2023/12/26 04:03:18;;;;;;;0.70;0.70;;;7.30;99.20;;;;;;5046123;27;20675;-77
2023/12/26 04:05:45;;;;;;;0.97;0.60;;;7.30;99.20;;;;;;5025922;28;20615;-77
2023/12/26 04:08:14;;;;;;;2.97;1.40;;;7.30;99.30;;;;;;5042452;27;20714;-76
2023/12/26 04:10:40;;;;;;;1.13;1.13;;;7.30;99.00;;;;;;5035726;27;20678;-76
2023/12/26 04:13:07;;;;;;;4.53;1.80;;;7.40;99.00;;;;;;5050868;28;20623;-76
2023/12/26 04:15:35;;;;;;;1.07;0.90;;;7.40;98.90;;;;;;5046206;28;20623;-77
2023/12/26 04:18:02;;;;;;;0.80;0.80;;;7.40;98.90;;;;;;5054794;28;21014;-77
2023/12/26 04:20:29;;;;;;;0.60;0.60;;;7.40;98.90;;;;;;5053375;27;20633;-77
2023/12/26 04:22:56;;;;;;;1.23;1.13;;;7.40;99.00;;;;;;5058325;28;20649;-76
2023/12/26 04:25:24;;;;;;;1.43;1.00;;;7.30;99.00;;;;;;5054430;28;20729;-77
2023/12/26 04:27:51;;;;;;;1.43;0.80;;;7.40;99.00;;;;;;5050242;28;21051;-76
2023/12/26 04:30:18;;;;;;;3.80;1.10;;;7.40;98.80;;;;;;5055872;27;20625;-76
2023/12/26 04:32:45;;;;;;;1.10;0.87;;;7.50;98.80;;;;;;5055449;27;20717;-76
2023/12/26 04:35:12;;;;;;;0.67;0.67;;;7.60;98.80;;;;;;5045659;27;20628;-76
2023/12/26 04:37:39;;;;;;;1.37;1.03;;;7.60;98.80;;;;;;5054016;28;20646;-76
2023/12/26 04:40:07;;;;;;;0.80;0.80;;;7.60;99.10;;;;;;5039303;28;20689;-77
2023/12/26 04:42:35;;;;;;;1.30;0.90;;;7.60;99.10;;;;;;5037886;28;21187;-77
2023/12/26 04:45:03;;;;;;;0.80;0.80;;;7.60;99.40;;;;;;5049882;28;20671;-77
2023/12/26 04:47:30;;;;;;;0.80;0.80;;;7.60;99.00;;;;;;5045731;27;20645;-77
2023/12/26 04:49:58;;;;;;;1.03;0.70;;;7.70;99.00;;;;;;5062151;27;20755;-76
2023/12/26 04:52:25;;;;;;;0.70;0.70;;;7.70;98.70;;;;;;5044956;27;20768;-78
2023/12/26 04:54:51;;;;;;;1.90;0.80;;;7.70;98.70;;;;;;5042683;28;20696;-78
2023/12/26 04:57:18;;;;;;;1.47;0.90;;;7.70;98.70;;;;;;5041998;27;20688;-76
2023/12/26 04:59:47;;;;;;;1.37;0.90;;;7.60;99.00;;;;;;5037363;27;20724;-77
2023/12/26 05:02:14;;;;;;;5.23;0.83;;;7.60;98.80;;;;;;5037326;27;20615;-76
2023/12/26 05:04:40;;;;;;;1.23;1.13;;;7.70;98.90;;;;;;5043370;27;20623;-77
2023/12/26 05:07:08;;;;;;;0.97;0.93;;;7.60;98.80;;;;;;5035399;27;20676;-77
2023/12/26 05:09:35;;;;;;;1.60;0.83;;;7.70;99.20;;;;;;5033712;27;20619;-76
2023/12/26 05:12:02;;;;;;;4.80;1.00;;;7.70;98.80;;;;;;5046435;28;20672;-77
2023/12/26 05:14:29;;;;;;;2.30;1.40;;;7.70;98.60;;;;;;5055240;28;20627;-77
2023/12/26 05:16:57;;;;;;;2.27;1.00;;;7.70;98.60;;;;;;5063326;28;20658;-77
2023/12/26 05:19:24;;;;;;;1.70;1.17;;;7.70;98.60;;;;;;5052417;27;20618;-77
2023/12/26 05:21:52;;;;;;;3.50;1.23;;;7.70;99.00;;;;;;5056739;28;20661;-77
2023/12/26 05:24:19;;;;;;;2.10;1.60;;;7.70;98.60;;;;;;5053714;27;20619;-76
2023/12/26 05:26:46;;;;;;;1.60;0.67;;;7.70;98.70;;;;;;5049630;28;20658;-77
2023/12/26 05:29:13;;;;;;;1.50;1.30;;;7.70;98.90;;;;;;5042340;27;20719;-77
2023/12/26 05:31:40;;;;;;;1.90;0.70;;;7.70;98.80;;;;;;5035739;28;20996;-77
2023/12/26 05:34:08;;;;;;;0.80;0.80;;;7.70;98.80;;;;;;5045286;28;20626;-77
2023/12/26 05:36:35;;;;;;;1.27;1.00;;;7.70;98.90;;;;;;5054166;27;20683;-77
2023/12/26 05:39:02;;;;;;;1.43;0.80;;;7.70;98.60;;;;;;5041860;28;20618;-77
2023/12/26 05:41:29;;;;;;;1.30;0.70;;;7.70;98.50;;;;;;5037382;27;20618;-77
2023/12/26 05:43:56;;;;;;;0.87;0.80;;;7.80;98.60;;;;;;5038997;27;20658;-77
2023/12/26 05:46:29;;;;;;;1.00;0.90;;;7.60;98.70;;;;;;5044907;27;20749;-77
2023/12/26 05:48:56;;;;;;;1.83;1.33;;;7.70;98.70;;;;;;5037088;27;20674;-77
2023/12/26 05:51:25;;;;;;;1.03;1.03;;;7.80;98.70;;;;;;5059094;27;20633;-77
2023/12/26 05:53:52;;;;;;;1.93;1.00;;;7.70;98.50;;;;;;5044025;27;20730;-78
2023/12/26 05:56:19;;;;;;;0.50;0.43;;;7.70;98.60;;;;;;5042126;27;20674;-76
2023/12/26 05:58:46;;;;;;;1.40;0.80;;;7.70;98.60;;;;;;5046789;27;20718;-77
2023/12/26 06:01:13;;;;;;;2.10;1.20;;;7.60;98.80;;;;;;5040832;27;21256;-77
2023/12/26 06:03:40;;;;;;;1.47;1.10;;;7.70;98.80;;;;;;5031093;28;21146;-77
2023/12/26 06:06:12;;;;;;;1.30;0.83;;;7.70;98.60;;;;;;5029051;27;21110;-77
2023/12/26 06:08:40;;;;;;;1.97;0.80;;;7.60;98.90;;;;;;5030469;27;20658;-77
2023/12/26 06:11:08;;;;;;;2.13;1.17;;;7.70;98.50;;;;;;5033972;27;20628;-77
2023/12/26 06:13:36;;;;;;;0.83;0.63;;;7.70;98.60;;;;;;5035457;27;20722;-77
2023/12/26 06:16:03;;;;;;;1.47;0.80;;;7.70;98.60;;;;;;5054326;27;20640;-77
2023/12/26 06:18:30;;;;;;;1.23;1.13;;;7.70;98.80;;;;;;5044317;27;20646;-77
2023/12/26 06:20:57;;;;;;;1.23;0.90;;;7.70;98.50;;;;;;5052725;27;20610;-77
2023/12/26 06:23:25;;;;;;;1.00;0.80;;;7.70;98.40;;;;;;5049717;27;20653;-77
2023/12/26 06:25:54;;;;;;;0.80;0.80;;;7.70;98.40;;;;;;5039593;28;20649;-77
2023/12/26 06:28:21;;;;;;;0.70;0.70;;;7.70;98.30;;;;;;5042624;27;22137;-76
2023/12/26 06:30:48;;;;;;;1.00;0.80;;;7.70;98.30;;;;;;5055755;27;20637;-77
2023/12/26 06:33:15;;;;;;;2.83;1.10;;;7.70;98.30;;;;;;5050835;27;20734;-76
2023/12/26 06:35:41;;;;;;;0.60;0.50;;;7.70;98.30;;;;;;5042946;28;21614;-76
2023/12/26 06:38:12;;;;;;;1.23;0.70;;;7.70;98.20;;;;;;5057321;27;20635;-76
2023/12/26 06:40:39;;;;;;;1.10;1.00;;;7.70;98.30;;;;;;5057321;27;21274;-76
2023/12/26 06:43:07;;;;;;;0.67;0.67;;;7.70;98.20;;;;;;5046696;27;20618;-76
2023/12/26 06:45:34;;;;;;;1.50;1.13;;;7.70;98.20;;;;;;5060817;27;21221;-76
2023/12/26 06:48:01;;;;;;;1.50;0.97;;;7.70;98.30;;;;;;5066464;27;20683;-76
2023/12/26 06:50:28;;;;;;;6.03;0.80;;;7.70;98.20;;;;;;5054309;27;20661;-76
2023/12/26 06:52:55;;;;;;;2.07;0.93;;;7.80;98.20;;;;;;5042068;27;21384;-76
2023/12/26 06:55:22;;;;;;;0.80;0.70;;;7.80;98.20;;;;;;5060975;27;20685;-75
2023/12/26 06:57:49;;;;;;;1.03;0.73;;;7.80;98.20;;;;;;5040784;27;20614;-77
2023/12/26 07:00:19;;;;;;;0.80;0.70;;;7.80;98.40;;;;;;5056704;27;20687;-77
2023/12/26 07:02:45;;;;;;;2.43;1.37;;;7.80;98.10;;;;;;5045186;28;20634;-76
2023/12/26 07:05:12;;;;;;;0.53;0.53;;;7.80;98.10;;;;;;5043626;28;20619;-75
2023/12/26 07:07:39;;;;;;;4.93;1.20;;;7.80;98.20;;;;;;5034448;28;20615;-75
2023/12/26 07:10:07;;;;;;;1.80;1.00;;;7.80;98.00;;;;;;5044252;27;20737;-76
2023/12/26 07:12:34;;;;;;;1.27;1.10;;;7.80;98.20;;;;;;5037368;27;21105;-76
2023/12/26 07:15:01;;;;;;;1.33;0.93;;;7.70;98.00;;;;;;5036087;27;20753;-80
2023/12/26 07:17:29;;;;;;;2.63;0.80;;;7.80;98.10;;;;;;5041369;27;20730;-85
2023/12/26 07:19:56;;;;;;;1.27;1.10;;;7.80;98.10;;;;;;5053005;27;20615;-78
2023/12/26 07:22:23;;;;;;;2.77;0.80;;;7.80;98.10;;;;;;5064033;27;20656;-78
2023/12/26 07:24:52;;;;;;;2.87;1.40;;;7.80;98.10;;;;;;5049946;28;21309;-78
2023/12/26 07:27:19;;;;;;;2.33;1.00;;;7.80;98.10;;;;;;5041750;27;20727;-79
2023/12/26 07:29:46;;;;;;;0.90;0.90;;;7.80;98.10;;;;;;5036805;27;20716;-80
2023/12/26 07:32:13;;;;;;;3.17;1.13;;;7.80;98.20;;;;;;5050116;28;20768;-81
2023/12/26 07:34:41;;;;;;;4.13;0.90;;;7.80;98.20;;;;;;5040525;28;20658;-82
2023/12/26 07:37:08;;;;;;;0.50;0.47;;;7.70;98.10;;;;;;5056991;27;20636;-75
2023/12/26 07:39:35;;;;;;;0.80;0.80;;;7.80;98.10;;;;;;5044992;27;20660;-77
2023/12/26 07:42:02;;;;;;;1.27;1.17;;;7.70;98.10;;;;;;5044062;28;20715;-75
2023/12/26 07:44:29;;;;;;;3.63;1.10;;;7.80;98.10;;;;;;5044471;27;20658;-73
2023/12/26 07:46:56;;;;;;;1.87;0.90;;;7.80;98.30;;;;;;5043599;28;20663;-74
2023/12/26 07:49:24;;;;;;;1.97;0.83;;;7.70;98.00;;;;;;5059889;27;20737;-74
2023/12/26 07:51:52;;;;;;;1.00;0.90;;;7.70;98.10;;;;;;5046538;28;20623;-75
2023/12/26 07:54:19;;;;;;;1.23;0.73;;;7.70;98.20;;;;;;5037077;28;20741;-77
2023/12/26 07:56:46;;;;;;;2.20;1.57;;;7.80;98.10;;;;;;5053222;27;20654;-75
2023/12/26 07:59:13;;;;;;;1.87;1.40;;;7.80;97.90;;;;;;5040326;28;20651;-74
2023/12/26 08:01:40;;;;;;;1.60;1.40;;;7.80;98.00;;;;;;5041903;28;21510;-75
2023/12/26 08:04:07;;;;;;;3.17;1.43;;;7.80;98.00;;;;;;5044630;28;20679;-76
2023/12/26 08:06:34;;;;;;;1.13;1.03;;;7.80;98.10;;;;;;5039357;28;21165;-75
2023/12/26 08:09:04;;;;;;;0.67;0.67;;;7.80;98.20;;;;;;5038118;28;20634;-76
2023/12/26 08:11:30;;;;;;;0.80;0.80;;;7.80;98.00;;;;;;5044451;28;20638;-79
2023/12/26 08:13:57;;;;;;;1.10;0.93;;;7.80;97.70;;;;;;5036041;28;20765;-78
2023/12/26 08:16:24;;;;;;;1.13;1.00;;;7.90;97.90;;;;;;5036258;28;20726;-80
2023/12/26 08:18:51;;;;;;;0.80;0.80;;;7.80;97.90;;;;;;5052582;27;20683;-79
2023/12/26 08:21:18;;;;;;;1.60;1.20;;;7.80;97.70;;;;;;5068017;27;20650;-80
2023/12/26 08:23:45;;;;;;;5.83;4.20;;;7.90;98.00;;;;;;5085348;27;21233;-75
2023/12/26 08:26:13;;;;;;;1.60;0.90;;;7.90;98.10;;;;;;5058992;27;21034;-73
2023/12/26 08:28:41;;;;;;;1.70;1.60;;;7.90;97.80;;;;;;5037188;28;20782;-79
2023/12/26 08:31:08;;;;;;;1.23;0.97;;;8.00;97.90;;;;;;5029557;27;20234;-79
2023/12/26 08:33:37;;;;;;;1.00;0.80;;;8.00;97.90;;;;;;5022606;28;21382;-83
2023/12/26 08:36:04;;;;;;;1.80;1.33;;;8.00;98.00;;;;;;5040956;28;20621;-78
2023/12/26 08:38:31;;;;;;;1.73;1.17;;;8.00;97.90;;;;;;5040694;28;20654;-78
2023/12/26 08:40:58;;;;;;;3.43;1.13;;;8.00;97.70;;;;;;5044520;28;20722;-76
2023/12/26 08:43:28;;;;;;;1.30;1.20;;;8.00;98.20;;;;;;5048448;28;20650;-76
2023/12/26 08:45:55;;;;;;;1.73;1.13;;;8.00;97.70;;;;;;5045625;28;20623;-76
2023/12/26 08:48:22;;;;;;;1.23;1.03;;;8.10;98.00;;;;;;5042076;27;20638;-77
2023/12/26 08:50:49;;;;;;;0.80;0.80;;;8.10;98.00;;;;;;5049715;27;20721;-77
2023/12/26 08:53:16;;;;;;;1.30;1.20;;;8.00;97.60;;;;;;5045955;28;20775;-77
2023/12/26 08:55:45;;;;;;;1.50;0.87;;;8.10;97.90;;;;;;5041905;27;20612;-77
2023/12/26 08:58:12;;;;;;;1.23;1.10;;;8.10;97.90;;;;;;5033881;28;20723;-77
2023/12/26 09:00:42;;;;;;;0.90;0.80;;;8.20;97.90;;;;;;5041692;27;21270;-77
2023/12/26 09:03:08;;;;;;;1.70;1.20;;;8.20;97.80;;;;;;5041380;27;21032;-77
2023/12/26 09:05:35;;;;;;;1.27;0.90;;;8.20;97.90;;;;;;5037127;28;20738;-77
2023/12/26 09:08:02;;;;;;;2.07;1.33;;;8.20;97.50;;;;;;5043318;27;20634;-77
2023/12/26 09:10:29;;;;;;;0.73;0.70;;;8.40;98.20;;;;;;5036476;27;20893;-77
2023/12/26 09:12:56;;;;;;;1.23;1.13;;;8.40;97.50;;;;;;5039735;27;21108;-77
2023/12/26 09:15:23;;;;;;;0.80;0.80;;;8.30;97.60;;;;;;5028668;27;21155;-77
2023/12/26 09:17:51;;;;;;;2.63;1.20;;;8.30;97.90;;;;;;5033599;27;21229;-77
2023/12/26 09:20:18;;;;;;;1.60;1.07;;;8.30;97.70;;;;;;5057219;27;20682;-76
2023/12/26 09:22:45;;;;;;;0.90;0.90;;;8.30;98.10;;;;;;5044830;28;20614;-76
2023/12/26 09:25:13;;;;;;;2.77;1.37;;;8.30;97.50;;;;;;5039864;27;20619;-77
2023/12/26 09:27:39;;;;;;;1.30;0.93;;;8.30;97.80;;;;;;5048373;27;21190;-76
2023/12/26 09:30:09;;;;;;;2.00;1.40;;;8.40;97.80;;;;;;5057688;28;20662;-77
2023/12/26 09:32:35;;;;;;;2.00;1.17;;;8.40;97.70;;;;;;5051066;27;20734;-77
2023/12/26 09:35:04;;;;;;;2.50;1.17;;;8.40;97.80;;;;;;5054587;27;20710;-77
2023/12/26 09:37:34;;;;;;;5.27;0.80;;;8.30;97.80;;;;;;5033280;28;20667;-77
2023/12/26 09:40:02;;;;;;;1.10;1.00;;;8.50;98.00;;;;;;5036164;28;20717;-77
2023/12/26 09:42:30;;;;;;;2.70;1.00;;;8.50;98.00;;;;;;5044368;27;20751;-77
2023/12/26 09:44:58;;;;;;;1.67;1.07;;;8.50;98.20;;;;;;5049426;27;20635;-77
2023/12/26 09:47:26;;;;;;;1.53;1.43;;;8.50;98.00;;;;;;5045275;27;20724;-76
2023/12/26 09:49:54;;;;;;;7.80;1.70;;;8.60;98.30;;;;;;5058634;27;20707;-76
2023/12/26 09:52:23;;;;;;;3.30;0.90;;;8.60;98.30;;;;;;5047543;28;20635;-76
2023/12/26 09:54:52;;;;;;;0.83;0.80;;;8.50;97.80;;;;;;5042003;27;20765;-76
2023/12/26 09:57:19;;;;;;;2.73;1.10;;;8.50;98.00;;;;;;5043055;27;20709;-76
2023/12/26 09:59:48;;;;;;;2.10;0.90;;;8.50;97.80;;;;;;5039041;27;21163;-77
2023/12/26 10:02:15;;;;;;;2.57;1.30;;;8.50;97.80;;;;;;5044485;28;20723;-76
2023/12/26 10:04:42;;;;;;;1.43;0.80;;;8.60;98.00;;;;;;5040700;27;20679;-76
2023/12/26 10:07:10;;;;;;;2.60;1.10;;;8.60;98.00;;;;;;5047051;27;20666;-77
2023/12/26 10:09:38;;;;;;;4.67;1.37;;;8.60;97.90;;;;;;5038577;27;20635;-76
2023/12/26 10:12:06;;;;;;;3.63;1.77;;;8.60;97.80;;;;;;5033287;27;20655;-76
2023/12/26 10:14:32;;;;;;;6.80;1.27;;;8.60;97.80;;;;;;5041801;27;20718;-76
2023/12/26 10:17:00;;;;;;;0.80;0.80;;;8.70;97.80;;;;;;5032486;27;20618;-76
2023/12/26 10:19:26;;;;;;;2.00;1.40;;;8.70;98.10;;;;;;5033240;27;21013;-76
2023/12/26 10:21:54;;;;;;;0.80;0.73;;;8.70;97.90;;;;;;5049787;28;20649;-76
2023/12/26 10:24:21;;;;;;;0.83;0.83;;;8.70;97.70;;;;;;5053240;27;20626;-76
2023/12/26 10:26:49;;;;;;;1.70;1.10;;;8.70;98.20;;;;;;5035477;28;20626;-76
2023/12/26 10:29:17;;;;;;;0.70;0.60;;;8.70;97.90;;;;;;5054223;27;21229;-76
2023/12/26 10:31:45;;;;;;;0.57;0.57;;;8.70;97.90;;;;;;5055523;27;20651;-76
2023/12/26 10:34:16;;;;;;;1.70;1.10;;;8.80;98.10;;;;;;5046820;27;21064;-76
2023/12/26 10:36:44;;;;;;;1.27;0.87;;;8.80;98.00;;;;;;5051838;28;21229;-76
2023/12/26 10:39:11;;;;;;;1.43;1.03;;;8.70;98.00;;;;;;5050199;27;20966;-76
2023/12/26 10:41:40;;;;;;;3.80;1.23;;;8.80;98.10;;;;;;5048546;28;20619;-76
2023/12/26 10:44:09;;;;;;;1.20;0.87;;;8.90;98.00;;;;;;5042292;27;20618;-76
2023/12/26 10:46:36;;;;;;;1.80;1.43;;;8.90;98.40;;;;;;5043699;27;20724;-76
2023/12/26 10:49:05;;;;;;;1.03;0.97;;;8.90;98.00;;;;;;5054431;27;20634;-76
2023/12/26 10:51:32;;;;;;;1.83;1.73;;;8.80;98.00;;;;;;5041129;27;20622;-76
2023/12/26 10:54:09;;;;;;;1.40;1.20;;;8.80;98.10;;;;;;5048385;27;20686;-77
2023/12/26 10:56:36;;;;;;;2.83;1.03;;;8.80;98.20;;;;;;5040484;27;20619;-76
2023/12/26 10:59:04;;;;;;;0.80;0.80;;;8.80;98.00;;;;;;5046868;27;20615;-77
2023/12/26 13:53:10;;;;;;;2.33;0.63;;;9.10;99.60;;;;;;5046464;27;20684;-76
2023/12/26 13:55:36;;;;;;;1.27;1.17;;;9.10;99.80;;;;;;5045410;27;20633;-77
2023/12/26 13:58:03;;;;;;;0.70;0.60;;;9.10;99.70;;;;;;5044961;27;20746;-76
2023/12/26 14:00:30;;;;;;;1.10;0.77;;;9.10;99.80;;;;;;5050492;27;21011;-76
2023/12/26 14:02:57;;;;;;;0.80;0.80;;;9.10;99.90;;;;;;5044282;27;21025;-76
2023/12/26 14:05:24;;;;;;;0.70;0.70;;;9.20;99.80;;;;;;5043406;27;20655;-76
2023/12/26 14:07:55;;;;;;;1.93;1.00;;;9.20;99.70;;;;;;5038367;28;20637;-76
2023/12/26 14:10:23;;;;;;;0.90;0.90;;;9.30;99.80;;;;;;5040549;27;20739;-76
2023/12/26 14:12:50;;;;;;;1.03;0.73;;;9.20;99.80;;;;;;5032064;27;20617;-76
2023/12/26 14:15:16;;;;;;;0.90;0.77;;;9.10;99.80;;;;;;5041870;27;20767;-76
2023/12/26 14:17:43;;;;;;;0.70;0.57;;;9.10;99.80;;;;;;5037986;27;20639;-76
2023/12/26 14:20:10;;;;;;;0.77;0.53;;;9.20;99.90;;;;;;5038798;27;21089;-76
2023/12/26 14:22:37;;;;;;;1.13;0.60;;;9.20;99.90;;;;;;5041358;27;20630;-76
2023/12/26 14:25:03;;;;;;;1.17;0.53;;;9.20;99.70;;;;;;5036992;28;20637;-76
2023/12/26 14:27:31;;;;;;;0.80;0.80;;;9.30;99.80;;;;;;5047746;27;20623;-76
2023/12/26 14:29:58;;;;;;;0.53;0.50;;;9.30;99.90;;;;;;5054666;27;20198;-76
2023/12/26 14:32:25;;;;;;;1.73;0.90;;;9.40;99.80;;;;;;5050294;27;20640;-76
2023/12/26 14:34:51;;;;;;;0.70;0.70;;;9.40;99.60;;;;;;5052561;28;20775;-77
2023/12/26 14:37:18;;;;;;;1.37;1.10;;;9.50;99.60;;;;;;5059806;28;20630;-76
2023/12/26 14:39:45;;;;;;;0.90;0.90;;;9.50;99.60;;;;;;5043993;28;21087;-77
2023/12/26 14:42:12;;;;;;;0.87;0.87;;;9.40;99.70;;;;;;5035736;28;20646;-77
2023/12/26 14:44:40;;;;;;;0.90;0.90;;;9.30;99.70;;;;;;5054806;27;20642;-76
2023/12/26 14:47:07;;;;;;;0.93;0.60;;;9.30;99.90;;;;;;5048562;27;20742;-77
2023/12/26 14:49:33;;;;;;;1.23;0.67;;;9.40;99.80;;;;;;5045181;27;20622;-77
2023/12/26 14:52:00;;;;;;;1.07;0.80;;;9.30;99.70;;;;;;5055632;27;20626;-77
2023/12/26 14:54:27;;;;;;;1.60;0.80;;;9.20;99.60;;;;;;5050198;27;20719;-76
2023/12/26 14:56:54;;;;;;;0.80;0.70;;;9.10;99.70;;;;;;5039106;27;20623;-77
2023/12/26 14:59:21;;;;;;;0.70;0.53;;;9.00;99.90;;;;;;5043320;27;20633;-77
2023/12/26 15:01:51;;;;;;;2.20;0.63;;;9.00;99.90;;;;;;5038379;28;20626;-76
2023/12/26 15:04:26;;;;;;;1.10;0.63;;;8.90;99.90;;;;;;5037482;28;20683;-78
2023/12/26 15:06:53;;;;;;;0.80;0.80;;;8.80;99.90;;;;;;5043936;27;20636;-77
2023/12/26 15:09:20;;;;;;;0.97;0.87;;;8.80;99.90;;;;;;5042417;27;20719;-78
2023/12/26 15:11:47;;;;;;;0.50;0.50;;;8.80;99.90;;;;;;5043306;27;20659;-77
2023/12/26 15:14:14;;;;;;;0.73;0.73;;;8.80;99.90;;;;;;5041440;27;21064;-77
2023/12/26 15:16:41;;;;;;;0.63;0.63;;;8.80;99.90;;;;;;5035795;27;21125;-78
2023/12/26 15:19:10;;;;;;;1.50;0.97;;;8.80;99.90;;;;;;5037089;27;21088;-78
2023/12/26 15:21:41;;;;;;;1.50;0.73;;;8.80;99.90;;;;;;5033370;27;20631;-78
2023/12/26 15:24:09;;;;;;;2.70;2.00;;;8.80;99.90;;;;;;5039577;27;20658;-77
2023/12/26 15:26:36;;;;;;;4.03;1.93;;;8.80;99.90;;;;;;5038588;28;20985;-77
2023/12/26 15:29:03;;;;;;;1.40;1.30;;;8.70;99.90;;;;;;5045046;27;20634;-77
2023/12/26 15:31:30;;;;;;;1.63;1.53;;;8.70;99.90;;;;;;5048520;27;21041;-75
2023/12/26 15:33:57;;;;;;;0.70;0.60;;;8.70;99.90;;;;;;5043042;28;20697;-71
2023/12/26 15:36:26;;;;;;;0.70;0.70;;;8.70;99.90;;;;;;5079732;27;20739;-75
2023/12/26 15:38:54;;;;;;;0.73;0.73;;;8.70;99.90;;;;;;5062946;27;20636;-74
2023/12/26 15:41:23;;;;;;;1.80;1.35;;;8.70;99.90;;;;;;5061215;27;20805;-74
2023/12/26 15:43:50;;;;;;;1.50;1.27;;;8.70;99.90;;;;;;5053665;28;20193;-75
2023/12/26 15:46:18;;;;;;;6.03;4.00;;;8.70;99.90;;;;;;5038810;28;20741;-75
2023/12/26 15:48:46;;;;;;;1.87;1.20;;;8.70;99.90;;;;;;5052363;28;20707;-74
2023/12/26 15:51:13;;;;;;;1.63;1.53;;;8.70;99.90;;;;;;5046203;28;20926;-74